Prior Lake, MN (55372)

6:16 AM CDT on July 29, 2016 (GMT -0500)
Credit River | | Change Station

Elev 935 ft 44.70 °N, 93.39 °W | Updated 0 second ago

Mostly Cloudy
Mostly Cloudy
60.5 °F
Feels Like 60.5 °F
N
0.0
Wind Variable Wind from NW
Gusts 0.0 mph

Today
High -- | Low -- °F
--% Chance of Precip.
Yesterday
High -- | Low -- °F
Precip. -- in
Pressure 30.04 in
Visibility 10.0 miles
Clouds Mostly Cloudy 10000 ft
Dew Point 11 °F
Humidity 14%
Rainfall 0.00 in
Snow Depth Not available.
5:57 AM 8:42 PM
Waning Crescent, 23% visible
METAR KFCM 291053Z 36006KT 10SM BKN100 16/13 A3004 RMK AO2 SLP170 T01610133
Pressure 30.04 in
Visibility 10.0 miles
Clouds Mostly Cloudy 10000 ft
Dew Point 11 °F
Humidity 14%
Rainfall 0.00 in
Snow Depth Not available.
5:57 AM 8:42 PM
Waning Crescent, 23% visible
METAR KFCM 291053Z 36006KT 10SM BKN100 16/13 A3004 RMK AO2 SLP170 T01610133

10-Day Weather Forecast

Almanac

Astronomy

Jul. 29, 2016 Rise Set
Actual Time
Civil Twilight
Nautical Twilight
Astronomical Twilight
Moon
Length of Visible Light
Length of Day
Tomorrow will be .
, % of the Moon is Illuminated

Today's Extremes

State Highs State Lows

Community

WunderPhotos

Upload Photos

1,928,312 photos uploaded!

WunderBlog® & News

Nearby

Air Quality

  Air Quality AQ Index Pollutant
Not available.

Snow Depth

Station Depth Elevation

Earthquake Activity

City Distance Mag. Time & Date
Minimum magnitude displayed is 2.5.

Coastal Water Temperatures

Place Temperature

Stations

Nearby Weather Stations

Station Location Temp. Windchill Dew Point Humidity Wind Precip. Elev Updated Type
                   

Watches & Warnings

There are currently no watches in effect.